sensor_id;sensor_type;location;lat;lon;timestamp;P1;durP1;ratioP1;P2;durP2;ratioP2
21886;SDS011;11108;49.988;8.182;2023-12-14T00:01:31;1.97;;;1.83;;
21886;SDS011;11108;49.988;8.182;2023-12-14T00:03:56;1.93;;;1.73;;
21886;SDS011;11108;49.988;8.182;2023-12-14T00:06:21;1.90;;;1.70;;
21886;SDS011;11108;49.988;8.182;2023-12-14T00:08:46;1.60;;;1.50;;
21886;SDS011;11108;49.988;8.182;2023-12-14T00:11:12;1.83;;;1.73;;
21886;SDS011;11108;49.988;8.182;2023-12-14T00:13:37;1.70;;;1.60;;
21886;SDS011;11108;49.988;8.182;2023-12-14T00:16:03;1.60;;;1.50;;
21886;SDS011;11108;49.988;8.182;2023-12-14T00:18:28;1.90;;;1.80;;
21886;SDS011;11108;49.988;8.182;2023-12-14T00:20:54;2.53;;;1.80;;
21886;SDS011;11108;49.988;8.182;2023-12-14T00:23:22;1.80;;;1.70;;
21886;SDS011;11108;49.988;8.182;2023-12-14T00:25:48;1.40;;;1.40;;
21886;SDS011;11108;49.988;8.182;2023-12-14T00:28:13;1.73;;;1.63;;
21886;SDS011;11108;49.988;8.182;2023-12-14T00:30:38;1.40;;;1.30;;
21886;SDS011;11108;49.988;8.182;2023-12-14T00:33:04;1.70;;;1.60;;
21886;SDS011;11108;49.988;8.182;2023-12-14T00:35:29;1.70;;;1.60;;
21886;SDS011;11108;49.988;8.182;2023-12-14T00:37:54;1.50;;;1.50;;
21886;SDS011;11108;49.988;8.182;2023-12-14T00:40:19;1.50;;;1.40;;
21886;SDS011;11108;49.988;8.182;2023-12-14T00:42:44;1.13;;;1.13;;
21886;SDS011;11108;49.988;8.182;2023-12-14T00:45:09;1.40;;;1.30;;
21886;SDS011;11108;49.988;8.182;2023-12-14T00:47:35;1.60;;;1.47;;
21886;SDS011;11108;49.988;8.182;2023-12-14T00:50:00;1.57;;;1.40;;
21886;SDS011;11108;49.988;8.182;2023-12-14T00:52:25;4.40;;;1.60;;
21886;SDS011;11108;49.988;8.182;2023-12-14T00:54:50;1.60;;;1.50;;
21886;SDS011;11108;49.988;8.182;2023-12-14T00:57:15;1.87;;;1.67;;
21886;SDS011;11108;49.988;8.182;2023-12-14T00:59:41;1.60;;;1.50;;
21886;SDS011;11108;49.988;8.182;2023-12-14T01:02:06;1.70;;;1.60;;
21886;SDS011;11108;49.988;8.182;2023-12-14T01:04:31;2.97;;;1.87;;
21886;SDS011;11108;49.988;8.182;2023-12-14T01:06:57;1.87;;;1.50;;
21886;SDS011;11108;49.988;8.182;2023-12-14T01:09:22;2.27;;;1.37;;
21886;SDS011;11108;49.988;8.182;2023-12-14T01:11:47;1.73;;;1.30;;
21886;SDS011;11108;49.988;8.182;2023-12-14T01:14:12;1.40;;;1.30;;
21886;SDS011;11108;49.988;8.182;2023-12-14T01:16:37;1.43;;;1.30;;
21886;SDS011;11108;49.988;8.182;2023-12-14T01:19:03;1.87;;;1.27;;
21886;SDS011;11108;49.988;8.182;2023-12-14T01:21:30;2.33;;;1.53;;
21886;SDS011;11108;49.988;8.182;2023-12-14T01:23:55;2.20;;;1.57;;
21886;SDS011;11108;49.988;8.182;2023-12-14T01:26:20;1.37;;;1.27;;
21886;SDS011;11108;49.988;8.182;2023-12-14T01:28:46;1.60;;;1.50;;
21886;SDS011;11108;49.988;8.182;2023-12-14T01:31:11;1.80;;;1.53;;
21886;SDS011;11108;49.988;8.182;2023-12-14T01:33:36;1.40;;;1.30;;
21886;SDS011;11108;49.988;8.182;2023-12-14T01:36:01;1.23;;;1.20;;
21886;SDS011;11108;49.988;8.182;2023-12-14T01:38:27;1.67;;;1.57;;
21886;SDS011;11108;49.988;8.182;2023-12-14T01:40:52;1.83;;;1.40;;
21886;SDS011;11108;49.988;8.182;2023-12-14T01:43:17;1.73;;;1.33;;
21886;SDS011;11108;49.988;8.182;2023-12-14T01:45:42;1.20;;;1.10;;
21886;SDS011;11108;49.988;8.182;2023-12-14T01:48:08;1.37;;;1.27;;
21886;SDS011;11108;49.988;8.182;2023-12-14T01:50:33;1.20;;;1.20;;
21886;SDS011;11108;49.988;8.182;2023-12-14T01:52:58;1.33;;;1.27;;
21886;SDS011;11108;49.988;8.182;2023-12-14T01:55:23;1.53;;;1.40;;
21886;SDS011;11108;49.988;8.182;2023-12-14T01:57:50;1.70;;;1.60;;
21886;SDS011;11108;49.988;8.182;2023-12-14T02:00:22;1.60;;;1.50;;
21886;SDS011;11108;49.988;8.182;2023-12-14T02:02:51;1.60;;;1.33;;
21886;SDS011;11108;49.988;8.182;2023-12-14T02:05:16;1.10;;;1.10;;
21886;SDS011;11108;49.988;8.182;2023-12-14T02:07:41;1.60;;;1.50;;
21886;SDS011;11108;49.988;8.182;2023-12-14T02:10:06;1.40;;;1.40;;
21886;SDS011;11108;49.988;8.182;2023-12-14T02:12:32;1.07;;;1.00;;
21886;SDS011;11108;49.988;8.182;2023-12-14T02:14:59;1.13;;;1.13;;
21886;SDS011;11108;49.988;8.182;2023-12-14T02:17:24;1.33;;;1.23;;
21886;SDS011;11108;49.988;8.182;2023-12-14T02:19:49;1.07;;;1.00;;
21886;SDS011;11108;49.988;8.182;2023-12-14T02:22:16;1.37;;;1.20;;
21886;SDS011;11108;49.988;8.182;2023-12-14T02:24:41;1.40;;;1.30;;
21886;SDS011;11108;49.988;8.182;2023-12-14T02:27:06;1.53;;;1.23;;
21886;SDS011;11108;49.988;8.182;2023-12-14T02:29:31;1.20;;;1.10;;
21886;SDS011;11108;49.988;8.182;2023-12-14T02:31:56;1.00;;;1.00;;
21886;SDS011;11108;49.988;8.182;2023-12-14T02:34:22;1.40;;;1.30;;
21886;SDS011;11108;49.988;8.182;2023-12-14T02:36:47;1.53;;;1.40;;
21886;SDS011;11108;49.988;8.182;2023-12-14T02:39:12;1.13;;;1.13;;
21886;SDS011;11108;49.988;8.182;2023-12-14T02:41:37;1.70;;;1.60;;
21886;SDS011;11108;49.988;8.182;2023-12-14T02:44:02;1.37;;;1.27;;
21886;SDS011;11108;49.988;8.182;2023-12-14T02:46:27;1.50;;;1.40;;
21886;SDS011;11108;49.988;8.182;2023-12-14T02:48:53;2.40;;;1.20;;
21886;SDS011;11108;49.988;8.182;2023-12-14T02:51:18;1.33;;;1.23;;
21886;SDS011;11108;49.988;8.182;2023-12-14T02:53:43;1.33;;;1.23;;
21886;SDS011;11108;49.988;8.182;2023-12-14T02:56:09;1.20;;;1.20;;
21886;SDS011;11108;49.988;8.182;2023-12-14T02:58:34;1.50;;;1.40;;
21886;SDS011;11108;49.988;8.182;2023-12-14T03:00:59;1.10;;;1.10;;
21886;SDS011;11108;49.988;8.182;2023-12-14T03:03:24;1.10;;;1.00;;
21886;SDS011;11108;49.988;8.182;2023-12-14T03:05:50;1.20;;;1.10;;
21886;SDS011;11108;49.988;8.182;2023-12-14T03:08:15;1.20;;;1.20;;
21886;SDS011;11108;49.988;8.182;2023-12-14T03:10:40;1.27;;;1.27;;
21886;SDS011;11108;49.988;8.182;2023-12-14T03:13:05;1.50;;;1.07;;
21886;SDS011;11108;49.988;8.182;2023-12-14T03:15:30;1.27;;;1.10;;
21886;SDS011;11108;49.988;8.182;2023-12-14T03:17:55;1.33;;;1.23;;
21886;SDS011;11108;49.988;8.182;2023-12-14T03:20:21;1.30;;;1.20;;
21886;SDS011;11108;49.988;8.182;2023-12-14T03:22:46;1.33;;;1.23;;
21886;SDS011;11108;49.988;8.182;2023-12-14T03:25:11;1.27;;;1.27;;
21886;SDS011;11108;49.988;8.182;2023-12-14T03:27:36;1.90;;;1.17;;
21886;SDS011;11108;49.988;8.182;2023-12-14T03:30:02;1.00;;;1.00;;
21886;SDS011;11108;49.988;8.182;2023-12-14T03:32:28;1.37;;;1.13;;
21886;SDS011;11108;49.988;8.182;2023-12-14T03:34:53;1.00;;;1.00;;
21886;SDS011;11108;49.988;8.182;2023-12-14T03:37:18;0.90;;;0.90;;
21886;SDS011;11108;49.988;8.182;2023-12-14T03:39:44;1.10;;;1.10;;
21886;SDS011;11108;49.988;8.182;2023-12-14T03:42:09;1.60;;;1.13;;
21886;SDS011;11108;49.988;8.182;2023-12-14T03:44:34;1.17;;;1.07;;
21886;SDS011;11108;49.988;8.182;2023-12-14T03:46:59;1.20;;;1.20;;
21886;SDS011;11108;49.988;8.182;2023-12-14T03:49:25;1.30;;;1.20;;
21886;SDS011;11108;49.988;8.182;2023-12-14T03:51:50;1.33;;;1.23;;
21886;SDS011;11108;49.988;8.182;2023-12-14T03:54:15;1.13;;;1.10;;
21886;SDS011;11108;49.988;8.182;2023-12-14T03:56:40;1.33;;;1.23;;
21886;SDS011;11108;49.988;8.182;2023-12-14T03:59:06;0.97;;;0.97;;
21886;SDS011;11108;49.988;8.182;2023-12-14T04:01:31;0.90;;;0.90;;
21886;SDS011;11108;49.988;8.182;2023-12-14T04:03:56;1.17;;;1.07;;
21886;SDS011;11108;49.988;8.182;2023-12-14T04:06:21;0.87;;;0.83;;
21886;SDS011;11108;49.988;8.182;2023-12-14T04:08:46;0.90;;;0.90;;
21886;SDS011;11108;49.988;8.182;2023-12-14T04:11:12;1.03;;;1.03;;
21886;SDS011;11108;49.988;8.182;2023-12-14T04:13:38;1.30;;;1.20;;
21886;SDS011;11108;49.988;8.182;2023-12-14T04:16:03;1.07;;;1.07;;
21886;SDS011;11108;49.988;8.182;2023-12-14T04:18:29;0.80;;;0.80;;
21886;SDS011;11108;49.988;8.182;2023-12-14T04:20:54;1.10;;;1.10;;
21886;SDS011;11108;49.988;8.182;2023-12-14T04:23:19;1.23;;;1.13;;
21886;SDS011;11108;49.988;8.182;2023-12-14T04:25:44;1.10;;;1.10;;
21886;SDS011;11108;49.988;8.182;2023-12-14T04:28:09;1.30;;;1.20;;
21886;SDS011;11108;49.988;8.182;2023-12-14T04:30:35;1.13;;;1.00;;
21886;SDS011;11108;49.988;8.182;2023-12-14T04:33:00;0.90;;;0.90;;
21886;SDS011;11108;49.988;8.182;2023-12-14T04:35:25;1.00;;;1.00;;
21886;SDS011;11108;49.988;8.182;2023-12-14T04:37:50;1.17;;;1.07;;
21886;SDS011;11108;49.988;8.182;2023-12-14T04:40:16;1.00;;;1.00;;
21886;SDS011;11108;49.988;8.182;2023-12-14T04:42:41;1.30;;;1.20;;
21886;SDS011;11108;49.988;8.182;2023-12-14T04:45:06;1.00;;;1.00;;
21886;SDS011;11108;49.988;8.182;2023-12-14T04:47:31;0.80;;;0.70;;
21886;SDS011;11108;49.988;8.182;2023-12-14T04:49:57;0.70;;;0.70;;
21886;SDS011;11108;49.988;8.182;2023-12-14T04:52:22;1.70;;;1.00;;
21886;SDS011;11108;49.988;8.182;2023-12-14T04:54:47;0.90;;;0.90;;
21886;SDS011;11108;49.988;8.182;2023-12-14T04:57:12;1.20;;;1.10;;
21886;SDS011;11108;49.988;8.182;2023-12-14T04:59:40;0.97;;;0.97;;
21886;SDS011;11108;49.988;8.182;2023-12-14T05:02:05;1.10;;;1.00;;
21886;SDS011;11108;49.988;8.182;2023-12-14T05:04:31;1.10;;;1.10;;
21886;SDS011;11108;49.988;8.182;2023-12-14T05:06:56;1.30;;;1.20;;
21886;SDS011;11108;49.988;8.182;2023-12-14T05:09:21;0.97;;;0.97;;
21886;SDS011;11108;49.988;8.182;2023-12-14T05:11:46;1.07;;;1.07;;
21886;SDS011;11108;49.988;8.182;2023-12-14T05:14:11;1.17;;;1.07;;
21886;SDS011;11108;49.988;8.182;2023-12-14T05:16:37;1.33;;;0.90;;
21886;SDS011;11108;49.988;8.182;2023-12-14T05:19:02;1.40;;;1.20;;
21886;SDS011;11108;49.988;8.182;2023-12-14T05:21:27;0.87;;;0.77;;
21886;SDS011;11108;49.988;8.182;2023-12-14T05:23:52;1.00;;;1.00;;
21886;SDS011;11108;49.988;8.182;2023-12-14T05:26:18;0.93;;;0.93;;
21886;SDS011;11108;49.988;8.182;2023-12-14T05:28:44;1.33;;;1.20;;
21886;SDS011;11108;49.988;8.182;2023-12-14T05:31:09;0.80;;;0.80;;
21886;SDS011;11108;49.988;8.182;2023-12-14T05:33:38;0.80;;;0.80;;
21886;SDS011;11108;49.988;8.182;2023-12-14T05:36:03;0.80;;;0.80;;
21886;SDS011;11108;49.988;8.182;2023-12-14T05:38:33;1.30;;;1.20;;
21886;SDS011;11108;49.988;8.182;2023-12-14T05:40:58;1.43;;;1.20;;
21886;SDS011;11108;49.988;8.182;2023-12-14T05:43:23;1.20;;;1.10;;
21886;SDS011;11108;49.988;8.182;2023-12-14T05:45:49;0.90;;;0.90;;
21886;SDS011;11108;49.988;8.182;2023-12-14T05:48:14;1.10;;;1.10;;
21886;SDS011;11108;49.988;8.182;2023-12-14T05:50:39;1.30;;;1.20;;
21886;SDS011;11108;49.988;8.182;2023-12-14T05:53:04;1.10;;;1.10;;
21886;SDS011;11108;49.988;8.182;2023-12-14T05:55:30;1.10;;;1.10;;
21886;SDS011;11108;49.988;8.182;2023-12-14T05:57:55;1.07;;;1.07;;
21886;SDS011;11108;49.988;8.182;2023-12-14T06:00:21;1.20;;;1.10;;
21886;SDS011;11108;49.988;8.182;2023-12-14T06:02:46;1.27;;;1.27;;
21886;SDS011;11108;49.988;8.182;2023-12-14T06:05:12;1.20;;;1.20;;
21886;SDS011;11108;49.988;8.182;2023-12-14T06:07:37;2.07;;;1.20;;
21886;SDS011;11108;49.988;8.182;2023-12-14T06:10:02;1.43;;;1.20;;
21886;SDS011;11108;49.988;8.182;2023-12-14T06:12:28;1.40;;;1.30;;
21886;SDS011;11108;49.988;8.182;2023-12-14T06:14:53;1.20;;;1.10;;
21886;SDS011;11108;49.988;8.182;2023-12-14T06:17:19;1.00;;;1.00;;
21886;SDS011;11108;49.988;8.182;2023-12-14T06:19:44;1.07;;;0.97;;
21886;SDS011;11108;49.988;8.182;2023-12-14T06:22:09;1.00;;;0.90;;
21886;SDS011;11108;49.988;8.182;2023-12-14T06:24:34;1.30;;;1.20;;
21886;SDS011;11108;49.988;8.182;2023-12-14T06:26:59;1.53;;;1.00;;
21886;SDS011;11108;49.988;8.182;2023-12-14T06:29:25;1.20;;;1.10;;
21886;SDS011;11108;49.988;8.182;2023-12-14T06:31:50;1.53;;;1.23;;
21886;SDS011;11108;49.988;8.182;2023-12-14T06:34:16;1.03;;;1.03;;
21886;SDS011;11108;49.988;8.182;2023-12-14T06:36:42;1.07;;;1.07;;
21886;SDS011;11108;49.988;8.182;2023-12-14T06:39:07;1.40;;;1.30;;
21886;SDS011;11108;49.988;8.182;2023-12-14T06:41:32;1.10;;;1.10;;
21886;SDS011;11108;49.988;8.182;2023-12-14T06:43:58;1.20;;;1.17;;
21886;SDS011;11108;49.988;8.182;2023-12-14T06:46:23;1.80;;;1.10;;
21886;SDS011;11108;49.988;8.182;2023-12-14T06:48:48;0.87;;;0.87;;
21886;SDS011;11108;49.988;8.182;2023-12-14T06:51:13;1.33;;;1.23;;
21886;SDS011;11108;49.988;8.182;2023-12-14T06:53:39;1.30;;;1.30;;
21886;SDS011;11108;49.988;8.182;2023-12-14T06:56:04;1.83;;;1.30;;
21886;SDS011;11108;49.988;8.182;2023-12-14T06:58:30;1.43;;;1.30;;
21886;SDS011;11108;49.988;8.182;2023-12-14T07:00:56;1.20;;;1.20;;
21886;SDS011;11108;49.988;8.182;2023-12-14T07:03:21;1.70;;;1.60;;
21886;SDS011;11108;49.988;8.182;2023-12-14T07:05:47;1.27;;;1.17;;
21886;SDS011;11108;49.988;8.182;2023-12-14T07:08:12;1.73;;;1.40;;
21886;SDS011;11108;49.988;8.182;2023-12-14T07:10:37;1.43;;;1.33;;
21886;SDS011;11108;49.988;8.182;2023-12-14T07:13:02;2.20;;;1.20;;
21886;SDS011;11108;49.988;8.182;2023-12-14T07:15:27;2.03;;;1.30;;
21886;SDS011;11108;49.988;8.182;2023-12-14T07:17:53;3.33;;;1.30;;
21886;SDS011;11108;49.988;8.182;2023-12-14T07:20:18;1.80;;;1.47;;
21886;SDS011;11108;49.988;8.182;2023-12-14T07:22:43;2.07;;;1.60;;
21886;SDS011;11108;49.988;8.182;2023-12-14T07:25:08;1.43;;;1.33;;
21886;SDS011;11108;49.988;8.182;2023-12-14T07:27:33;1.63;;;1.37;;
21886;SDS011;11108;49.988;8.182;2023-12-14T07:29:59;2.10;;;1.30;;
21886;SDS011;11108;49.988;8.182;2023-12-14T07:32:24;1.40;;;1.30;;
21886;SDS011;11108;49.988;8.182;2023-12-14T07:34:49;1.63;;;1.30;;
21886;SDS011;11108;49.988;8.182;2023-12-14T07:37:14;2.57;;;1.50;;
21886;SDS011;11108;49.988;8.182;2023-12-14T07:39:40;2.17;;;1.40;;
21886;SDS011;11108;49.988;8.182;2023-12-14T07:42:05;2.60;;;1.40;;
21886;SDS011;11108;49.988;8.182;2023-12-14T07:44:30;1.83;;;1.50;;
21886;SDS011;11108;49.988;8.182;2023-12-14T07:46:56;2.10;;;1.40;;
21886;SDS011;11108;49.988;8.182;2023-12-14T07:49:21;1.43;;;1.37;;
21886;SDS011;11108;49.988;8.182;2023-12-14T07:51:48;1.83;;;1.30;;
21886;SDS011;11108;49.988;8.182;2023-12-14T07:54:13;3.10;;;1.90;;
21886;SDS011;11108;49.988;8.182;2023-12-14T07:56:39;1.60;;;1.50;;
21886;SDS011;11108;49.988;8.182;2023-12-14T07:59:04;1.20;;;1.07;;
21886;SDS011;11108;49.988;8.182;2023-12-14T08:01:32;1.77;;;1.40;;
21886;SDS011;11108;49.988;8.182;2023-12-14T08:03:57;1.67;;;1.40;;
21886;SDS011;11108;49.988;8.182;2023-12-14T08:06:23;1.63;;;1.47;;
21886;SDS011;11108;49.988;8.182;2023-12-14T08:08:51;1.50;;;1.23;;
21886;SDS011;11108;49.988;8.182;2023-12-14T08:11:16;2.90;;;1.40;;
21886;SDS011;11108;49.988;8.182;2023-12-14T08:13:41;3.73;;;1.47;;
21886;SDS011;11108;49.988;8.182;2023-12-14T08:16:09;1.90;;;1.67;;
21886;SDS011;11108;49.988;8.182;2023-12-14T08:18:36;1.70;;;1.60;;
21886;SDS011;11108;49.988;8.182;2023-12-14T08:21:01;1.60;;;1.50;;
21886;SDS011;11108;49.988;8.182;2023-12-14T08:23:26;2.53;;;1.63;;
21886;SDS011;11108;49.988;8.182;2023-12-14T08:25:56;2.17;;;1.40;;
21886;SDS011;11108;49.988;8.182;2023-12-14T08:28:25;3.03;;;1.60;;
21886;SDS011;11108;49.988;8.182;2023-12-14T08:30:53;2.53;;;1.53;;
21886;SDS011;11108;49.988;8.182;2023-12-14T08:33:18;2.00;;;1.53;;
21886;SDS011;11108;49.988;8.182;2023-12-14T08:35:44;1.60;;;1.40;;
21886;SDS011;11108;49.988;8.182;2023-12-14T08:38:09;1.57;;;1.40;;
21886;SDS011;11108;49.988;8.182;2023-12-14T08:40:34;2.30;;;1.70;;
21886;SDS011;11108;49.988;8.182;2023-12-14T08:43:00;1.70;;;1.60;;
21886;SDS011;11108;49.988;8.182;2023-12-14T08:45:25;2.17;;;1.60;;
21886;SDS011;11108;49.988;8.182;2023-12-14T08:47:50;2.90;;;1.70;;
21886;SDS011;11108;49.988;8.182;2023-12-14T08:50:15;2.23;;;1.47;;
21886;SDS011;11108;49.988;8.182;2023-12-14T08:52:41;3.97;;;1.70;;
21886;SDS011;11108;49.988;8.182;2023-12-14T08:55:06;3.40;;;1.53;;
21886;SDS011;11108;49.988;8.182;2023-12-14T08:57:32;3.77;;;1.60;;
21886;SDS011;11108;49.988;8.182;2023-12-14T08:59:57;1.87;;;1.77;;
21886;SDS011;11108;49.988;8.182;2023-12-14T09:02:23;1.57;;;1.47;;
21886;SDS011;11108;49.988;8.182;2023-12-14T09:04:48;1.97;;;1.53;;
21886;SDS011;11108;49.988;8.182;2023-12-14T09:07:13;1.93;;;1.67;;
21886;SDS011;11108;49.988;8.182;2023-12-14T09:09:38;3.00;;;1.57;;
21886;SDS011;11108;49.988;8.182;2023-12-14T09:12:04;2.53;;;1.67;;
21886;SDS011;11108;49.988;8.182;2023-12-14T09:14:29;2.07;;;1.47;;
21886;SDS011;11108;49.988;8.182;2023-12-14T09:16:55;1.73;;;1.63;;
21886;SDS011;11108;49.988;8.182;2023-12-14T09:19:20;2.23;;;1.40;;
21886;SDS011;11108;49.988;8.182;2023-12-14T09:21:46;2.80;;;1.97;;
21886;SDS011;11108;49.988;8.182;2023-12-14T09:24:11;1.60;;;1.50;;
21886;SDS011;11108;49.988;8.182;2023-12-14T09:26:36;1.77;;;1.53;;
21886;SDS011;11108;49.988;8.182;2023-12-14T09:29:01;3.77;;;1.43;;
21886;SDS011;11108;49.988;8.182;2023-12-14T09:31:27;1.57;;;1.57;;
21886;SDS011;11108;49.988;8.182;2023-12-14T09:33:53;2.67;;;1.67;;
21886;SDS011;11108;49.988;8.182;2023-12-14T09:36:18;2.40;;;1.80;;
21886;SDS011;11108;49.988;8.182;2023-12-14T09:38:43;1.93;;;1.60;;
21886;SDS011;11108;49.988;8.182;2023-12-14T09:41:09;1.80;;;1.70;;
21886;SDS011;11108;49.988;8.182;2023-12-14T09:43:34;1.50;;;1.40;;
21886;SDS011;11108;49.988;8.182;2023-12-14T09:46:00;2.33;;;1.30;;
21886;SDS011;11108;49.988;8.182;2023-12-14T09:48:26;2.43;;;1.70;;
21886;SDS011;11108;49.988;8.182;2023-12-14T09:50:53;2.90;;;1.30;;
21886;SDS011;11108;49.988;8.182;2023-12-14T09:53:18;1.60;;;1.50;;
21886;SDS011;11108;49.988;8.182;2023-12-14T09:55:43;1.40;;;1.30;;
21886;SDS011;11108;49.988;8.182;2023-12-14T09:58:09;2.20;;;1.50;;
21886;SDS011;11108;49.988;8.182;2023-12-14T10:00:39;2.73;;;1.53;;
21886;SDS011;11108;49.988;8.182;2023-12-14T10:03:20;2.17;;;1.53;;
21886;SDS011;11108;49.988;8.182;2023-12-14T10:05:46;1.50;;;1.40;;
21886;SDS011;11108;49.988;8.182;2023-12-14T10:08:11;3.30;;;1.77;;
21886;SDS011;11108;49.988;8.182;2023-12-14T10:10:37;2.10;;;1.77;;
21886;SDS011;11108;49.988;8.182;2023-12-14T10:13:02;1.53;;;1.43;;
21886;SDS011;11108;49.988;8.182;2023-12-14T10:15:27;2.70;;;1.60;;
21886;SDS011;11108;49.988;8.182;2023-12-14T10:17:53;1.13;;;1.13;;
21886;SDS011;11108;49.988;8.182;2023-12-14T10:20:22;2.13;;;1.93;;
21886;SDS011;11108;49.988;8.182;2023-12-14T10:22:48;1.70;;;1.60;;
21886;SDS011;11108;49.988;8.182;2023-12-14T10:25:19;1.60;;;1.50;;
21886;SDS011;11108;49.988;8.182;2023-12-14T10:27:48;1.80;;;1.70;;
21886;SDS011;11108;49.988;8.182;2023-12-14T10:30:16;1.73;;;1.53;;
21886;SDS011;11108;49.988;8.182;2023-12-14T10:32:41;2.50;;;1.80;;
21886;SDS011;11108;49.988;8.182;2023-12-14T10:35:06;1.30;;;1.20;;
21886;SDS011;11108;49.988;8.182;2023-12-14T10:37:32;1.60;;;1.50;;
21886;SDS011;11108;49.988;8.182;2023-12-14T10:39:57;2.50;;;1.60;;
21886;SDS011;11108;49.988;8.182;2023-12-14T10:42:24;1.87;;;1.77;;
21886;SDS011;11108;49.988;8.182;2023-12-14T10:44:52;4.00;;;1.63;;
21886;SDS011;11108;49.988;8.182;2023-12-14T10:47:20;5.87;;;1.93;;
21886;SDS011;11108;49.988;8.182;2023-12-14T10:49:49;1.97;;;1.87;;
21886;SDS011;11108;49.988;8.182;2023-12-14T10:52:15;2.43;;;2.23;;
21886;SDS011;11108;49.988;8.182;2023-12-14T10:54:41;4.57;;;2.70;;
21886;SDS011;11108;49.988;8.182;2023-12-14T10:57:07;4.63;;;3.27;;
21886;SDS011;11108;49.988;8.182;2023-12-14T10:59:33;7.83;;;4.20;;
21886;SDS011;11108;49.988;8.182;2023-12-14T11:01:59;10.20;;;5.07;;
21886;SDS011;11108;49.988;8.182;2023-12-14T11:04:32;8.53;;;4.73;;
21886;SDS011;11108;49.988;8.182;2023-12-14T11:07:16;9.10;;;5.20;;
21886;SDS011;11108;49.988;8.182;2023-12-14T11:09:43;8.33;;;4.80;;
21886;SDS011;11108;49.988;8.182;2023-12-14T11:12:09;6.47;;;4.40;;
21886;SDS011;11108;49.988;8.182;2023-12-14T11:14:36;11.70;;;5.33;;
21886;SDS011;11108;49.988;8.182;2023-12-14T11:17:05;8.17;;;5.23;;
21886;SDS011;11108;49.988;8.182;2023-12-14T11:19:30;8.73;;;5.10;;
21886;SDS011;11108;49.988;8.182;2023-12-14T11:22:09;8.50;;;5.43;;
21886;SDS011;11108;49.988;8.182;2023-12-14T11:24:35;6.23;;;5.13;;
21886;SDS011;11108;49.988;8.182;2023-12-14T11:27:04;7.10;;;5.10;;
21886;SDS011;11108;49.988;8.182;2023-12-14T11:29:29;6.87;;;5.53;;
21886;SDS011;11108;49.988;8.182;2023-12-14T11:31:54;8.50;;;4.80;;
21886;SDS011;11108;49.988;8.182;2023-12-14T11:34:20;6.87;;;5.20;;
21886;SDS011;11108;49.988;8.182;2023-12-14T11:36:48;4.83;;;4.40;;
21886;SDS011;11108;49.988;8.182;2023-12-14T11:39:14;6.27;;;4.80;;
21886;SDS011;11108;49.988;8.182;2023-12-14T11:41:39;6.27;;;4.67;;
21886;SDS011;11108;49.988;8.182;2023-12-14T11:44:04;5.70;;;4.77;;
21886;SDS011;11108;49.988;8.182;2023-12-14T11:46:30;8.37;;;5.00;;
21886;SDS011;11108;49.988;8.182;2023-12-14T11:48:56;6.60;;;4.40;;
21886;SDS011;11108;49.988;8.182;2023-12-14T11:51:21;7.27;;;4.77;;
21886;SDS011;11108;49.988;8.182;2023-12-14T11:53:47;8.00;;;4.70;;
21886;SDS011;11108;49.988;8.182;2023-12-14T11:56:13;5.13;;;4.60;;
21886;SDS011;11108;49.988;8.182;2023-12-14T11:58:41;6.50;;;4.80;;
21886;SDS011;11108;49.988;8.182;2023-12-14T12:01:17;6.13;;;4.70;;
21886;SDS011;11108;49.988;8.182;2023-12-14T12:03:42;6.27;;;4.67;;
21886;SDS011;11108;49.988;8.182;2023-12-14T12:06:20;8.07;;;4.00;;
21886;SDS011;11108;49.988;8.182;2023-12-14T12:08:47;9.17;;;4.50;;
21886;SDS011;11108;49.988;8.182;2023-12-14T12:11:16;5.60;;;4.03;;
21886;SDS011;11108;49.988;8.182;2023-12-14T12:13:41;5.23;;;4.23;;
21886;SDS011;11108;49.988;8.182;2023-12-14T12:16:06;6.23;;;4.10;;
21886;SDS011;11108;49.988;8.182;2023-12-14T12:18:31;4.67;;;4.10;;
21886;SDS011;11108;49.988;8.182;2023-12-14T12:20:56;7.10;;;3.93;;
21886;SDS011;11108;49.988;8.182;2023-12-14T12:23:25;9.40;;;4.77;;
21886;SDS011;11108;49.988;8.182;2023-12-14T12:25:50;4.53;;;3.73;;
21886;SDS011;11108;49.988;8.182;2023-12-14T12:28:15;4.53;;;3.87;;
21886;SDS011;11108;49.988;8.182;2023-12-14T12:30:41;5.33;;;4.17;;
21886;SDS011;11108;49.988;8.182;2023-12-14T12:33:07;4.53;;;4.00;;
21886;SDS011;11108;49.988;8.182;2023-12-14T12:35:32;5.77;;;4.00;;
21886;SDS011;11108;49.988;8.182;2023-12-14T12:37:58;5.63;;;3.63;;
21886;SDS011;11108;49.988;8.182;2023-12-14T12:40:24;5.27;;;3.73;;
21886;SDS011;11108;49.988;8.182;2023-12-14T12:42:51;5.57;;;3.90;;
21886;SDS011;11108;49.988;8.182;2023-12-14T12:45:16;4.20;;;3.83;;
21886;SDS011;11108;49.988;8.182;2023-12-14T12:47:42;4.70;;;3.80;;
21886;SDS011;11108;49.988;8.182;2023-12-14T12:50:08;6.00;;;3.70;;
21886;SDS011;11108;49.988;8.182;2023-12-14T12:52:33;3.60;;;3.10;;
21886;SDS011;11108;49.988;8.182;2023-12-14T12:54:58;4.70;;;3.70;;
21886;SDS011;11108;49.988;8.182;2023-12-14T12:57:23;6.93;;;3.97;;
21886;SDS011;11108;49.988;8.182;2023-12-14T12:59:48;4.63;;;3.30;;
21886;SDS011;11108;49.988;8.182;2023-12-14T13:02:14;5.47;;;3.47;;
21886;SDS011;11108;49.988;8.182;2023-12-14T13:04:39;5.53;;;3.77;;
21886;SDS011;11108;49.988;8.182;2023-12-14T13:07:04;5.27;;;3.57;;
21886;SDS011;11108;49.988;8.182;2023-12-14T13:09:29;5.27;;;3.37;;
21886;SDS011;11108;49.988;8.182;2023-12-14T13:11:54;3.77;;;3.43;;
21886;SDS011;11108;49.988;8.182;2023-12-14T13:14:20;4.13;;;3.60;;
21886;SDS011;11108;49.988;8.182;2023-12-14T13:16:45;6.00;;;4.13;;
21886;SDS011;11108;49.988;8.182;2023-12-14T13:19:11;5.20;;;3.80;;
21886;SDS011;11108;49.988;8.182;2023-12-14T13:21:36;3.73;;;3.43;;
21886;SDS011;11108;49.988;8.182;2023-12-14T13:24:01;5.27;;;3.20;;
21886;SDS011;11108;49.988;8.182;2023-12-14T13:26:27;5.40;;;3.50;;
21886;SDS011;11108;49.988;8.182;2023-12-14T13:28:52;4.07;;;3.37;;
21886;SDS011;11108;49.988;8.182;2023-12-14T13:31:17;4.50;;;3.37;;
21886;SDS011;11108;49.988;8.182;2023-12-14T13:33:43;4.53;;;3.77;;
21886;SDS011;11108;49.988;8.182;2023-12-14T13:36:08;4.57;;;3.70;;
21886;SDS011;11108;49.988;8.182;2023-12-14T13:38:34;3.40;;;3.13;;
21886;SDS011;11108;49.988;8.182;2023-12-14T13:41:00;3.87;;;3.33;;
21886;SDS011;11108;49.988;8.182;2023-12-14T13:43:27;4.47;;;3.20;;
21886;SDS011;11108;49.988;8.182;2023-12-14T13:45:53;6.03;;;3.23;;
21886;SDS011;11108;49.988;8.182;2023-12-14T13:48:22;3.60;;;3.30;;
21886;SDS011;11108;49.988;8.182;2023-12-14T13:50:47;3.97;;;3.60;;
21886;SDS011;11108;49.988;8.182;2023-12-14T13:53:13;3.87;;;3.43;;
21886;SDS011;11108;49.988;8.182;2023-12-14T13:55:38;3.13;;;2.87;;
21886;SDS011;11108;49.988;8.182;2023-12-14T13:58:04;4.13;;;3.33;;
21886;SDS011;11108;49.988;8.182;2023-12-14T14:00:29;3.60;;;3.30;;
21886;SDS011;11108;49.988;8.182;2023-12-14T14:02:54;3.57;;;2.80;;
21886;SDS011;11108;49.988;8.182;2023-12-14T14:05:20;3.50;;;3.17;;
21886;SDS011;11108;49.988;8.182;2023-12-14T14:07:45;3.83;;;3.20;;
21886;SDS011;11108;49.988;8.182;2023-12-14T14:10:12;2.70;;;2.60;;
21886;SDS011;11108;49.988;8.182;2023-12-14T14:12:37;4.47;;;3.20;;
21886;SDS011;11108;49.988;8.182;2023-12-14T14:15:02;5.03;;;3.20;;
21886;SDS011;11108;49.988;8.182;2023-12-14T14:17:28;4.20;;;2.60;;
21886;SDS011;11108;49.988;8.182;2023-12-14T14:19:53;3.03;;;2.63;;
21886;SDS011;11108;49.988;8.182;2023-12-14T14:22:18;3.20;;;2.70;;
21886;SDS011;11108;49.988;8.182;2023-12-14T14:24:44;2.87;;;2.50;;
21886;SDS011;11108;49.988;8.182;2023-12-14T14:27:09;2.47;;;2.27;;
21886;SDS011;11108;49.988;8.182;2023-12-14T14:29:34;2.73;;;2.50;;
21886;SDS011;11108;49.988;8.182;2023-12-14T14:32:00;3.30;;;2.60;;
21886;SDS011;11108;49.988;8.182;2023-12-14T14:34:25;2.47;;;2.27;;
21886;SDS011;11108;49.988;8.182;2023-12-14T14:36:50;2.70;;;2.10;;
21886;SDS011;11108;49.988;8.182;2023-12-14T14:39:16;2.73;;;2.53;;